createdAt,value
2023-01-02T00:00:53.238Z,98739.91
2023-01-02T00:03:20.008Z,98745.78
2023-01-02T00:05:46.617Z,98749.63
2023-01-02T00:08:13.171Z,98746.31
2023-01-02T00:10:39.726Z,98742.16
2023-01-02T00:13:06.284Z,98740.72
2023-01-02T00:15:32.909Z,98742.41
2023-01-02T00:17:59.513Z,98738.94
2023-01-02T00:20:26.072Z,98744.28
2023-01-02T00:22:52.641Z,98749.34
2023-01-02T00:25:19.172Z,98740.34
2023-01-02T00:27:45.724Z,98747.00
2023-01-02T00:30:12.682Z,98749.41
2023-01-02T00:32:39.197Z,98748.53
2023-01-02T00:35:06.435Z,98745.75
2023-01-02T00:37:32.864Z,98749.97
2023-01-02T00:39:59.449Z,98747.31
2023-01-02T00:42:25.993Z,98745.69
2023-01-02T00:44:52.522Z,98748.75
2023-01-02T00:47:19.079Z,98745.00
2023-01-02T00:49:45.653Z,98753.22
2023-01-02T00:52:12.187Z,98750.97
2023-01-02T00:54:38.693Z,98754.03
2023-01-02T00:57:05.300Z,98750.81
2023-01-02T00:59:31.893Z,98737.88
2023-01-02T01:01:58.551Z,98748.91
2023-01-02T01:04:25.227Z,98746.06
2023-01-02T01:06:51.782Z,98738.59
2023-01-02T01:09:18.289Z,98738.94
2023-01-02T01:11:44.879Z,98736.97
2023-01-02T01:14:11.441Z,98739.13
2023-01-02T01:16:38.059Z,98734.03
2023-01-02T01:19:04.619Z,98731.19
2023-01-02T01:21:31.265Z,98733.66
2023-01-02T01:23:58.431Z,98727.38
2023-01-02T01:26:25.127Z,98719.31
2023-01-02T01:28:55.849Z,98729.31
2023-01-02T01:31:23.822Z,98724.66
2023-01-02T01:33:50.696Z,98717.63
2023-01-02T01:36:22.278Z,98705.69
2023-01-02T01:38:49.006Z,98722.25
2023-01-02T01:41:25.835Z,98710.13
2023-01-02T01:43:55.868Z,98717.72
2023-01-02T01:46:37.542Z,98720.03
2023-01-02T01:49:04.055Z,98715.94
2023-01-02T01:51:33.373Z,98718.72
2023-01-02T01:54:26.790Z,98714.56
2023-01-02T01:56:59.619Z,98717.97
2023-01-02T01:59:26.527Z,98707.72
2023-01-02T02:01:53.289Z,98709.59
2023-01-02T02:04:23.484Z,98705.94
2023-01-02T02:06:51.283Z,98694.19
2023-01-02T02:09:23.083Z,98698.81
2023-01-02T02:11:49.819Z,98696.16
2023-01-02T02:14:16.594Z,98696.16
2023-01-02T02:17:01.089Z,98699.38
2023-01-02T02:19:58.218Z,98703.28
2023-01-02T02:22:43.286Z,98702.13
2023-01-02T02:25:28.476Z,98698.75
2023-01-02T02:28:13.217Z,98699.72
2023-01-02T02:30:56.999Z,98701.31
2023-01-02T02:33:49.614Z,98699.72
2023-01-02T02:36:30.710Z,98706.13
2023-01-02T02:39:03.071Z,98703.38
2023-01-02T02:41:42.009Z,98699.72
2023-01-02T02:44:41.502Z,98699.72
2023-01-02T02:47:14.993Z,98697.31
2023-01-02T02:50:05.433Z,98695.31
2023-01-02T02:52:50.901Z,98692.84
2023-01-02T02:55:28.553Z,98691.41
2023-01-02T02:57:58.861Z,98686.00
2023-01-02T03:00:25.499Z,98682.88
2023-01-02T03:02:52.141Z,98688.66
2023-01-02T03:05:40.735Z,98683.13
2023-01-02T03:08:10.017Z,98683.06
2023-01-02T03:10:57.769Z,98680.81
2023-01-02T03:14:22.864Z,98679.81
2023-01-02T03:16:59.695Z,98678.03
2023-01-02T03:19:42.141Z,98681.00
2023-01-02T03:22:22.182Z,98680.09
2023-01-02T03:24:52.255Z,98679.91
2023-01-02T03:27:24.771Z,98684.72
2023-01-02T03:30:15.086Z,98681.69
2023-01-02T03:32:48.641Z,98678.41
2023-01-02T03:35:20.596Z,98691.16
2023-01-02T03:37:53.741Z,98687.97
2023-01-02T03:40:26.967Z,98684.81
2023-01-02T03:43:00.921Z,98688.84
2023-01-02T03:45:31.227Z,98692.31
2023-01-02T03:48:27.591Z,98691.44
2023-01-02T03:50:57.697Z,98686.41
2023-01-02T03:53:25.096Z,98691.34
2023-01-02T03:56:19.877Z,98690.91
2023-01-02T03:59:07.464Z,98696.31
2023-01-02T04:01:37.979Z,98690.63
2023-01-02T04:04:14.741Z,98679.31
2023-01-02T04:06:44.986Z,98698.38
2023-01-02T04:09:16.722Z,98694.50
2023-01-02T04:11:46.860Z,98702.03
2023-01-02T04:14:20.389Z,98703.53
2023-01-02T04:16:49.934Z,98710.34
2023-01-02T04:19:45.610Z,98715.63
2023-01-02T04:22:21.762Z,98721.16
2023-01-02T04:24:54.841Z,98712.13
2023-01-02T04:27:33.336Z,98704.06
2023-01-02T04:29:59.923Z,98715.41
2023-01-02T04:32:44.296Z,98712.53
2023-01-02T04:35:15.936Z,98707.28
2023-01-02T04:37:44.029Z,98707.28
2023-01-02T04:40:29.210Z,98715.72
2023-01-02T04:42:55.873Z,98721.03
2023-01-02T04:45:22.888Z,98723.25
2023-01-02T04:47:50.671Z,98720.03
2023-01-02T04:50:17.490Z,98721.44
2023-01-02T04:52:44.091Z,98735.88
2023-01-02T04:55:11.051Z,98731.06
2023-01-02T04:57:38.367Z,98739.09
2023-01-02T05:00:07.725Z,98739.31
2023-01-02T05:02:38.995Z,98744.31
2023-01-02T05:05:08.111Z,98733.56
2023-01-02T05:07:36.076Z,98747.94
2023-01-02T05:10:02.723Z,98748.53
2023-01-02T05:12:29.274Z,98744.50
2023-01-02T05:14:55.841Z,98750.03
2023-01-02T05:17:22.354Z,98743.75
2023-01-02T05:19:48.873Z,98752.84
2023-01-02T05:22:33.745Z,98751.97
2023-01-02T05:25:00.235Z,98754.06
2023-01-02T05:27:26.800Z,98765.28
2023-01-02T05:29:53.317Z,98768.25
2023-01-02T05:32:19.843Z,98762.19
2023-01-02T05:34:46.425Z,98772.63
2023-01-02T05:37:12.942Z,98779.75
2023-01-02T05:39:39.514Z,98771.03
2023-01-02T05:42:06.057Z,98774.81
2023-01-02T05:44:32.624Z,98774.03
2023-01-02T05:46:59.165Z,98777.25
2023-01-02T05:49:25.746Z,98780.34
2023-01-02T05:51:52.299Z,98786.66
2023-01-02T05:54:18.854Z,98783.69
2023-01-02T05:56:45.377Z,98783.56
2023-01-02T05:59:14.473Z,98783.56
2023-01-02T06:01:41.250Z,98776.53
2023-01-02T06:04:07.984Z,98784.59
2023-01-02T06:06:36.987Z,98783.88
2023-01-02T06:09:05.408Z,98780.19
2023-01-02T06:11:32.886Z,98794.00
2023-01-02T06:13:59.891Z,98782.06
2023-01-02T06:16:26.995Z,98783.88
2023-01-02T06:18:53.689Z,98790.78
2023-01-02T06:21:21.485Z,98786.66
2023-01-02T06:23:49.216Z,98785.63
2023-01-02T06:26:20.311Z,98786.16
2023-01-02T06:28:50.714Z,98785.94
2023-01-02T06:31:19.280Z,98779.06
2023-01-02T06:33:46.023Z,98774.94
2023-01-02T06:36:17.725Z,98773.53
2023-01-02T06:38:45.524Z,98775.84
2023-01-02T06:41:12.777Z,98778.03
2023-01-02T06:43:44.029Z,98782.97
2023-01-02T06:46:12.919Z,98782.47
2023-01-02T06:48:40.169Z,98782.22
2023-01-02T06:51:07.503Z,98789.59
2023-01-02T06:53:35.304Z,98791.69
2023-01-02T06:56:01.917Z,98786.28
2023-01-02T06:58:33.384Z,98805.09
2023-01-02T07:01:11.014Z,98800.75
2023-01-02T07:03:37.648Z,98810.16
2023-01-02T07:06:10.471Z,98807.88
2023-01-02T07:08:37.106Z,98807.16
2023-01-02T07:11:24.545Z,98804.63
2023-01-02T07:13:53.264Z,98807.72
2023-01-02T07:16:21.954Z,98820.94
2023-01-02T07:18:48.910Z,98804.53
2023-01-02T07:21:16.517Z,98813.34
2023-01-02T07:23:43.151Z,98815.31
2023-01-02T07:26:10.586Z,98806.78
2023-01-02T07:28:37.897Z,98816.25
2023-01-02T07:31:06.687Z,98814.53
2023-01-02T07:33:34.201Z,98817.09
2023-01-02T07:36:02.651Z,98821.31
2023-01-02T07:38:29.362Z,98818.38
2023-01-02T07:40:55.887Z,98817.31
2023-01-02T07:43:22.910Z,98816.34
2023-01-02T07:45:50.521Z,98819.56
2023-01-02T07:48:18.049Z,98817.44
2023-01-02T07:50:44.628Z,98812.78
2023-01-02T07:53:11.205Z,98816.97
2023-01-02T07:55:37.733Z,98823.41
2023-01-02T07:58:04.261Z,98825.91
2023-01-02T08:00:30.826Z,98815.91
2023-01-02T08:02:57.438Z,98829.03
2023-01-02T08:05:23.955Z,98820.56
2023-01-02T08:07:50.561Z,98811.63
2023-01-02T08:10:17.376Z,98809.44
2023-01-02T08:12:43.937Z,98809.19
2023-01-02T08:15:10.944Z,98808.56
2023-01-02T08:17:37.593Z,98809.75
2023-01-02T08:20:08.092Z,98802.66
2023-01-02T08:22:35.235Z,98794.91
2023-01-02T08:25:02.009Z,98799.81
2023-01-02T08:27:28.609Z,98794.53
2023-01-02T08:29:55.181Z,98793.25
2023-01-02T08:32:21.959Z,98791.91
2023-01-02T08:34:48.507Z,98787.56
2023-01-02T08:37:15.427Z,98786.63
2023-01-02T08:39:42.453Z,98779.72
2023-01-02T08:42:09.765Z,98790.19
2023-01-02T08:44:38.269Z,98786.41
2023-01-02T08:47:05.725Z,98781.50
2023-01-02T08:49:32.596Z,98775.75
2023-01-02T08:51:59.345Z,98765.75
2023-01-02T08:54:26.115Z,98760.94
2023-01-02T08:56:52.833Z,98767.69
2023-01-02T08:59:19.514Z,98764.66
2023-01-02T09:01:46.340Z,98754.63
2023-01-02T09:04:13.632Z,98761.44
2023-01-02T09:06:41.308Z,98755.31
2023-01-02T09:09:11.904Z,98750.19
2023-01-02T09:11:51.506Z,98745.63
2023-01-02T09:14:20.650Z,98733.66
2023-01-02T09:16:47.932Z,98741.84
2023-01-02T09:19:14.461Z,98742.59
2023-01-02T09:21:41.096Z,98737.38
2023-01-02T09:24:08.558Z,98728.69
2023-01-02T09:26:35.469Z,98724.63
2023-01-02T09:29:01.897Z,98717.91
2023-01-02T09:31:28.518Z,98723.16
2023-01-02T09:33:55.327Z,98718.88
2023-01-02T09:36:22.853Z,98718.09
2023-01-02T09:38:57.813Z,98714.75
2023-01-02T09:41:36.600Z,98705.53
2023-01-02T09:44:05.780Z,98707.41
2023-01-02T09:46:51.018Z,98690.84
2023-01-02T09:49:24.630Z,98690.84
2023-01-02T09:51:51.283Z,98685.69
2023-01-02T09:54:23.948Z,98686.50
2023-01-02T09:57:14.472Z,98680.41
2023-01-02T09:59:57.383Z,98681.34
2023-01-02T10:02:48.948Z,98669.75
2023-01-02T10:05:37.056Z,98665.88
2023-01-02T10:08:25.078Z,98662.06
2023-01-02T10:11:16.594Z,98642.22
2023-01-02T10:16:38.287Z,98644.47
2023-01-02T10:19:14.833Z,98635.31
2023-01-02T10:21:44.250Z,98638.69
2023-01-02T10:24:23.421Z,98637.72
2023-01-02T10:26:53.764Z,98629.78
2023-01-02T10:29:30.651Z,98632.19
2023-01-02T10:32:16.404Z,98612.38
2023-01-02T10:34:54.765Z,98608.47
2023-01-02T10:37:21.580Z,98606.19
2023-01-02T10:39:50.685Z,98602.69
2023-01-02T10:42:17.473Z,98592.31
2023-01-02T10:44:46.021Z,98591.78
2023-01-02T10:47:23.017Z,98580.66
2023-01-02T10:49:52.278Z,98572.00
2023-01-02T10:52:24.702Z,98569.22
2023-01-02T10:55:00.180Z,98571.25
2023-01-02T10:57:45.800Z,98563.69
2023-01-02T11:00:22.564Z,98569.00
2023-01-02T11:02:58.268Z,98563.50
2023-01-02T11:05:31.162Z,98556.31
2023-01-02T11:07:58.979Z,98550.78
2023-01-02T11:10:29.802Z,98540.44
2023-01-02T11:12:57.097Z,98541.19
2023-01-02T11:15:27.172Z,98536.41
2023-01-02T11:17:53.959Z,98536.41
2023-01-02T11:20:28.435Z,98526.06
2023-01-02T11:22:58.140Z,98524.88
2023-01-02T11:25:27.979Z,98510.91
2023-01-02T11:28:01.999Z,98496.50
2023-01-02T11:30:45.675Z,98498.81
2023-01-02T11:33:19.577Z,98489.97
2023-01-02T11:35:52.656Z,98485.59
2023-01-02T11:38:54.034Z,98490.00
2023-01-02T11:41:57.040Z,98478.81
2023-01-02T11:44:57.364Z,98474.75
2023-01-02T11:47:34.189Z,98469.94
2023-01-02T11:50:00.955Z,98461.13
2023-01-02T11:52:35.527Z,98453.91
2023-01-02T11:55:51.758Z,98452.06
2023-01-02T11:58:37.225Z,98450.97
2023-01-02T12:01:44.310Z,98445.53
2023-01-02T12:04:13.322Z,98447.16
2023-01-02T12:06:39.792Z,98445.44
2023-01-02T12:09:14.081Z,98434.16
2023-01-02T12:12:02.007Z,98437.97
2023-01-02T12:14:37.530Z,98429.84
2023-01-02T12:17:27.780Z,98432.97
2023-01-02T12:20:41.215Z,98430.19
2023-01-02T12:23:28.831Z,98425.56
2023-01-02T12:26:13.286Z,98426.00
2023-01-02T12:28:58.213Z,98414.97
2023-01-02T12:31:53.119Z,98413.63
2023-01-02T12:34:36.447Z,98409.19
2023-01-02T12:37:09.041Z,98405.56
2023-01-02T12:39:53.083Z,98405.13
2023-01-02T12:42:45.750Z,98406.81
2023-01-02T12:45:25.304Z,98395.47
2023-01-02T12:47:59.525Z,98400.63
2023-01-02T12:50:48.572Z,98399.72
2023-01-02T12:53:24.295Z,98403.63
2023-01-02T12:56:02.628Z,98393.97
2023-01-02T12:58:55.526Z,98395.13
2023-01-02T13:01:39.836Z,98392.94
2023-01-02T13:04:17.942Z,98387.22
2023-01-02T13:07:17.310Z,98394.91
2023-01-02T13:09:45.551Z,98397.28
2023-01-02T13:12:16.324Z,98385.19
2023-01-02T13:14:45.458Z,98378.09
2023-01-02T13:17:24.239Z,98377.81
2023-01-02T13:20:19.192Z,98379.41
2023-01-02T13:22:55.983Z,98376.22
2023-01-02T13:25:24.754Z,98376.28
2023-01-02T13:27:53.574Z,98369.16
2023-01-02T13:30:32.167Z,98372.69
2023-01-02T13:32:59.304Z,98371.88
2023-01-02T13:35:26.161Z,98371.88
2023-01-02T13:37:54.483Z,98370.22
2023-01-02T13:40:28.540Z,98372.25
2023-01-02T13:43:00.101Z,98364.81
2023-01-02T13:45:34.773Z,98371.28
2023-01-02T13:48:13.749Z,98366.19
2023-01-02T13:50:40.838Z,98368.22
2023-01-02T13:53:10.126Z,98366.53
2023-01-02T13:55:56.712Z,98367.31
2023-01-02T13:58:36.342Z,98366.19
2023-01-02T14:01:26.100Z,98359.44
2023-01-02T14:04:07.931Z,98365.94
2023-01-02T14:06:36.831Z,98358.19
2023-01-02T14:09:11.380Z,98362.50
2023-01-02T14:11:56.334Z,98361.56
2023-01-02T14:14:24.261Z,98362.19
2023-01-02T14:17:02.335Z,98361.69
2023-01-02T14:19:29.245Z,98368.69
2023-01-02T14:21:58.718Z,98365.25
2023-01-02T14:24:51.290Z,98375.03
2023-01-02T14:27:26.197Z,98370.50
2023-01-02T14:30:18.905Z,98373.06
2023-01-02T14:32:47.060Z,98372.53
2023-01-02T14:35:13.515Z,98377.06
2023-01-02T14:37:45.029Z,98374.47
2023-01-02T14:40:23.543Z,98372.97
2023-01-02T14:43:18.117Z,98370.75
2023-01-02T14:45:52.245Z,98372.50
2023-01-02T14:48:31.258Z,98376.66
2023-01-02T14:51:03.424Z,98377.59
2023-01-02T14:53:38.310Z,98368.91
2023-01-02T14:56:14.651Z,98369.34
2023-01-02T14:58:47.025Z,98370.13
2023-01-02T15:01:43.095Z,98373.81
2023-01-02T15:04:24.935Z,98377.03
2023-01-02T15:07:10.046Z,98376.25
2023-01-02T15:09:40.360Z,98366.72
2023-01-02T15:12:48.634Z,98373.91
2023-01-02T15:15:17.923Z,98375.91
2023-01-02T15:17:47.079Z,98377.91
2023-01-02T15:20:23.792Z,98371.16
2023-01-02T15:22:55.711Z,98377.94
2023-01-02T15:25:41.679Z,98380.34
2023-01-02T15:28:27.542Z,98380.34
2023-01-02T15:31:19.777Z,98379.91
2023-01-02T15:33:55.584Z,98380.34
2023-01-02T15:36:44.145Z,98388.66
2023-01-02T15:39:33.182Z,98383.91
2023-01-02T15:42:05.392Z,98388.28
2023-01-02T15:44:55.205Z,98394.66
2023-01-02T15:47:27.922Z,98392.66
2023-01-02T15:49:56.505Z,98397.84
2023-01-02T15:52:28.811Z,98397.84
2023-01-02T15:54:56.194Z,98393.44
2023-01-02T15:57:27.800Z,98395.38
2023-01-02T15:59:55.263Z,98390.94
2023-01-02T16:02:46.333Z,98397.22
2023-01-02T16:05:15.872Z,98392.78
2023-01-02T16:07:48.515Z,98390.38
2023-01-02T16:10:27.193Z,98393.16
2023-01-02T16:12:54.957Z,98400.31
2023-01-02T16:15:26.609Z,98404.75
2023-01-02T16:17:55.847Z,98413.13
2023-01-02T16:20:24.001Z,98407.16
2023-01-02T16:22:55.020Z,98405.47
2023-01-02T16:25:43.440Z,98400.72
2023-01-02T16:28:35.106Z,98406.19
2023-01-02T16:31:22.667Z,98407.69
2023-01-02T16:33:49.834Z,98404.13
2023-01-02T16:36:20.662Z,98410.13
2023-01-02T16:38:55.852Z,98417.63
2023-01-02T16:41:34.303Z,98412.78
2023-01-02T16:44:01.929Z,98412.38
2023-01-02T16:46:29.697Z,98415.13
2023-01-02T16:49:04.752Z,98412.28
2023-01-02T16:51:32.254Z,98416.06
2023-01-02T16:53:58.966Z,98421.44
2023-01-02T16:56:25.566Z,98423.75
2023-01-02T16:58:52.110Z,98427.75
2023-01-02T17:01:20.683Z,98422.94
2023-01-02T17:03:47.653Z,98429.09
2023-01-02T17:06:18.217Z,98430.69
2023-01-02T17:08:44.967Z,98438.22
2023-01-02T17:11:21.809Z,98440.22
2023-01-02T17:13:49.379Z,98445.81
2023-01-02T17:16:17.087Z,98441.47
2023-01-02T17:18:43.887Z,98448.22
2023-01-02T17:21:10.899Z,98445.44
2023-01-02T17:23:37.970Z,98436.66
2023-01-02T17:26:05.002Z,98439.00
2023-01-02T17:28:31.507Z,98439.44
2023-01-02T17:30:58.072Z,98431.47
2023-01-02T17:33:24.748Z,98434.56
2023-01-02T17:35:51.402Z,98438.88
2023-01-02T17:38:18.418Z,98428.88
2023-01-02T17:40:44.939Z,98431.97
2023-01-02T17:43:11.502Z,98433.19
2023-01-02T17:45:38.120Z,98431.06
2023-01-02T17:48:10.993Z,98438.47
2023-01-02T17:50:38.890Z,98438.69
2023-01-02T17:53:05.455Z,98431.50
2023-01-02T17:55:32.075Z,98423.16
2023-01-02T17:58:00.826Z,98441.13
2023-01-02T18:00:27.893Z,98440.25
2023-01-02T18:02:54.632Z,98440.31
2023-01-02T18:05:21.937Z,98435.59
2023-01-02T18:07:48.458Z,98432.94
2023-01-02T18:10:20.667Z,98445.91
2023-01-02T18:12:49.051Z,98440.34
2023-01-02T18:15:17.443Z,98442.28
2023-01-02T18:17:44.302Z,98450.16
2023-01-02T18:20:16.719Z,98444.25
2023-01-02T18:22:49.037Z,98444.91
2023-01-02T18:25:29.918Z,98457.47
2023-01-02T18:28:00.247Z,98455.03
2023-01-02T18:30:27.725Z,98455.03
2023-01-02T18:33:15.173Z,98450.16
2023-01-02T18:35:58.480Z,98449.03
2023-01-02T18:38:37.955Z,98451.56
2023-01-02T18:41:31.762Z,98453.16
2023-01-02T18:44:20.777Z,98450.44
2023-01-02T18:47:03.926Z,98451.56
2023-01-02T18:49:40.117Z,98448.88
2023-01-02T18:52:16.961Z,98453.69
2023-01-02T18:54:46.110Z,98449.69
2023-01-02T18:57:19.072Z,98459.53
2023-01-02T18:59:50.923Z,98456.72
2023-01-02T19:02:47.392Z,98448.25
2023-01-02T19:05:26.314Z,98455.06
2023-01-02T19:08:08.148Z,98462.38
2023-01-02T19:10:37.374Z,98458.81
2023-01-02T19:13:08.568Z,98461.16
2023-01-02T19:15:58.809Z,98460.09
2023-01-02T19:18:44.575Z,98456.16
2023-01-02T19:21:16.794Z,98459.66
2023-01-02T19:23:49.902Z,98456.75
2023-01-02T19:26:42.227Z,98459.09
2023-01-02T19:29:15.157Z,98455.91
2023-01-02T19:32:08.373Z,98460.59
2023-01-02T19:34:44.621Z,98454.22
2023-01-02T19:37:11.217Z,98461.19
2023-01-02T19:39:38.896Z,98461.91
2023-01-02T19:42:20.309Z,98456.34
2023-01-02T19:44:46.823Z,98463.03
2023-01-02T19:47:13.491Z,98453.13
2023-01-02T19:49:40.401Z,98464.06
2023-01-02T19:52:07.114Z,98465.66
2023-01-02T19:54:34.160Z,98453.31
2023-01-02T19:57:00.768Z,98463.69
2023-01-02T19:59:27.263Z,98467.53
2023-01-02T20:01:54.100Z,98468.81
2023-01-02T20:04:20.828Z,98471.31
2023-01-02T20:06:47.442Z,98472.63
2023-01-02T20:09:14.118Z,98469.84
2023-01-02T20:12:03.978Z,98476.25
2023-01-02T20:14:34.119Z,98470.41
2023-01-02T20:17:00.969Z,98464.19
2023-01-02T20:19:27.701Z,98466.09
2023-01-02T20:21:54.270Z,98452.59
2023-01-02T20:24:20.829Z,98461.78
2023-01-02T20:26:47.342Z,98449.53
2023-01-02T20:29:13.916Z,98455.06
2023-01-02T20:31:40.624Z,98450.53
2023-01-02T20:34:07.157Z,98450.16
2023-01-02T20:36:33.747Z,98454.75
2023-01-02T20:39:00.344Z,98453.00
2023-01-02T20:41:26.894Z,98454.34
2023-01-02T20:43:53.444Z,98451.88
2023-01-02T20:46:20.003Z,98453.72
2023-01-02T20:48:46.579Z,98447.81
2023-01-02T20:51:13.140Z,98445.88
2023-01-02T20:53:39.669Z,98448.56
2023-01-02T20:56:06.556Z,98451.03
2023-01-02T20:58:33.279Z,98455.03
2023-01-02T21:00:59.815Z,98455.84
2023-01-02T21:03:26.517Z,98451.44
2023-01-02T21:05:53.833Z,98458.97
2023-01-02T21:08:20.912Z,98456.56
2023-01-02T21:10:47.344Z,98453.50
2023-01-02T21:13:14.136Z,98457.00
2023-01-02T21:15:46.219Z,98465.91
2023-01-02T21:18:19.511Z,98457.03
2023-01-02T21:20:48.940Z,98460.38
2023-01-02T21:23:16.194Z,98453.34
2023-01-02T21:25:43.051Z,98457.75
2023-01-02T21:28:12.355Z,98454.13
2023-01-02T21:30:40.516Z,98454.78
2023-01-02T21:33:08.001Z,98466.50
2023-01-02T21:35:35.309Z,98460.13
2023-01-02T21:38:02.093Z,98458.31
2023-01-02T21:40:29.572Z,98451.84
2023-01-02T21:42:56.225Z,98452.72
2023-01-02T21:45:23.117Z,98451.09
2023-01-02T21:47:49.661Z,98458.53
2023-01-02T21:50:16.257Z,98451.09
2023-01-02T21:52:42.792Z,98452.34
2023-01-02T21:55:09.801Z,98453.56
2023-01-02T21:58:11.622Z,98443.97
2023-01-02T22:00:26.049Z,98453.88
2023-01-02T22:02:53.190Z,98447.84
2023-01-02T22:05:20.296Z,98447.03
2023-01-02T22:07:46.715Z,98447.91
2023-01-02T22:10:15.119Z,98439.16
2023-01-02T22:12:42.116Z,98446.69
2023-01-02T22:15:10.512Z,98450.97
2023-01-02T22:17:37.097Z,98450.13
2023-01-02T22:20:03.960Z,98441.66
2023-01-02T22:22:30.449Z,98444.44
2023-01-02T22:24:57.073Z,98442.47
2023-01-02T22:27:23.663Z,98438.91
2023-01-02T22:32:41.926Z,98438.03
2023-01-02T22:35:09.106Z,98437.59
2023-01-02T22:37:35.700Z,98432.94
2023-01-02T22:40:02.271Z,98432.22
2023-01-02T22:43:01.613Z,98437.38
2023-01-02T22:45:33.830Z,98430.47
2023-01-02T22:48:03.671Z,98430.91
2023-01-02T22:50:41.921Z,98429.75
2023-01-02T22:53:38.639Z,98425.97
2023-01-02T22:56:15.261Z,98418.84
2023-01-02T22:58:41.726Z,98425.09
2023-01-02T23:01:34.499Z,98423.78
2023-01-02T23:04:01.177Z,98427.78
2023-01-02T23:06:28.672Z,98427.78
2023-01-02T23:08:55.394Z,98424.66
2023-01-02T23:11:22.948Z,98419.28
2023-01-02T23:13:56.113Z,98414.47
2023-01-02T23:16:42.395Z,98418.47
2023-01-02T23:19:14.725Z,98412.13
2023-01-02T23:21:46.573Z,98413.13
2023-01-02T23:24:16.156Z,98408.31
2023-01-02T23:26:48.142Z,98409.88
2023-01-02T23:29:15.608Z,98411.47
2023-01-02T23:31:44.785Z,98412.31
2023-01-02T23:34:13.561Z,98405.88
2023-01-02T23:36:41.199Z,98404.88
2023-01-02T23:39:11.914Z,98400.00
2023-01-02T23:41:42.811Z,98394.69
2023-01-02T23:44:10.215Z,98389.25
2023-01-02T23:46:37.708Z,98405.75
2023-01-02T23:49:05.176Z,98406.41
2023-01-02T23:51:32.114Z,98398.75
2023-01-02T23:53:59.352Z,98402.97
2023-01-02T23:56:31.220Z,98408.81
2023-01-02T23:59:00.834Z,98404.25
